Time;durP1;ratioP1;P1;durP2;ratioP2;P2;SDS_P1;SDS_P2;PMS_P1;PMS_P2;Temp;Humidity;BMP_temperature;BMP_pressure;BME280_temperature;BME280_humidity;BME280_pressure;Samples;Min_cycle;Max_cycle;Signal;HPM_P1;HPM_P2
2023/10/21 00:00:36;;;;;;;24.38;11.70;;;;;;;;;;5074373;28;20063;-59
2023/10/21 00:03:04;;;;;;;26.63;12.73;;;;;;;;;;5073331;28;20039;-60
2023/10/21 00:05:31;;;;;;;24.13;11.88;;;;;;;;;;5074430;28;20115;-59
2023/10/21 00:07:59;;;;;;;24.00;11.55;;;;;;;;;;5074311;28;20040;-60
2023/10/21 00:10:26;;;;;;;25.95;11.75;;;;;;;;;;5074226;28;20052;-59
2023/10/21 00:12:54;;;;;;;24.98;12.43;;;;;;;;;;5074217;28;20037;-59
2023/10/21 00:15:21;;;;;;;28.25;11.93;;;;;;;;;;5072666;28;20044;-59
2023/10/21 00:17:49;;;;;;;25.38;12.30;;;;;;;;;;5072997;28;20042;-60
2023/10/21 00:20:16;;;;;;;27.20;12.73;;;;;;;;;;5074267;28;20041;-60
2023/10/21 00:22:44;;;;;;;23.00;11.82;;;;;;;;;;5072925;28;20040;-60
2023/10/21 00:25:11;;;;;;;24.73;11.57;;;;;;;;;;5072845;28;20044;-59
2023/10/21 00:27:39;;;;;;;24.77;11.98;;;;;;;;;;5074179;28;20120;-59
2023/10/21 00:30:07;;;;;;;23.23;11.55;;;;;;;;;;5072647;28;20045;-59
2023/10/21 00:32:35;;;;;;;29.20;11.82;;;;;;;;;;5074093;28;20060;-59
2023/10/21 00:35:03;;;;;;;29.55;11.85;;;;;;;;;;5073923;28;20040;-59
2023/10/21 00:37:31;;;;;;;24.75;12.60;;;;;;;;;;5072572;28;20379;-59
2023/10/21 00:39:58;;;;;;;26.70;11.73;;;;;;;;;;5072521;28;20425;-59
2023/10/21 00:42:26;;;;;;;24.30;11.35;;;;;;;;;;5072455;28;20068;-60
2023/10/21 00:44:53;;;;;;;27.63;12.15;;;;;;;;;;5072468;28;20497;-60
2023/10/21 00:47:21;;;;;;;25.42;11.52;;;;;;;;;;5073596;28;20135;-60
2023/10/21 00:49:48;;;;;;;28.23;12.23;;;;;;;;;;5073387;28;20444;-59
2023/10/21 00:52:16;;;;;;;23.30;11.93;;;;;;;;;;5072091;28;20084;-59
2023/10/21 00:54:44;;;;;;;24.88;11.88;;;;;;;;;;5073379;28;20433;-59
2023/10/21 00:57:11;;;;;;;20.65;10.90;;;;;;;;;;5072581;28;20052;-60
2023/10/21 00:59:40;;;;;;;26.40;11.88;;;;;;;;;;5073246;28;20041;-60
2023/10/21 01:02:12;;;;;;;26.45;12.20;;;;;;;;;;5071967;28;20071;-60
2023/10/21 01:04:40;;;;;;;20.23;11.10;;;;;;;;;;5071971;28;20406;-60
2023/10/21 01:07:15;;;;;;;24.92;11.75;;;;;;;;;;5073072;28;20044;-59
2023/10/21 01:09:43;;;;;;;25.13;11.02;;;;;;;;;;5071907;28;20049;-59
2023/10/21 01:12:10;;;;;;;23.17;11.18;;;;;;;;;;5071996;28;20029;-59
2023/10/21 01:14:38;;;;;;;23.08;10.60;;;;;;;;;;5071537;28;20045;-59
2023/10/21 01:17:05;;;;;;;29.08;11.23;;;;;;;;;;5073181;28;20543;-58
2023/10/21 01:19:33;;;;;;;29.20;11.85;;;;;;;;;;5071662;28;20501;-58
2023/10/21 01:22:00;;;;;;;22.88;11.75;;;;;;;;;;5071645;28;20044;-58
2023/10/21 01:24:28;;;;;;;20.73;11.50;;;;;;;;;;5071609;28;20040;-59
2023/10/21 01:26:56;;;;;;;24.00;10.70;;;;;;;;;;5070889;28;20051;-59
2023/10/21 01:29:24;;;;;;;22.23;11.38;;;;;;;;;;5072871;28;20035;-58
2023/10/21 01:31:51;;;;;;;26.42;11.50;;;;;;;;;;5071431;28;20514;-59
2023/10/21 01:34:19;;;;;;;24.02;11.80;;;;;;;;;;5071556;28;20047;-58
2023/10/21 01:36:47;;;;;;;26.17;12.95;;;;;;;;;;5071463;28;20045;-58
2023/10/21 01:39:15;;;;;;;24.55;11.50;;;;;;;;;;5071459;28;20045;-59
2023/10/21 01:41:43;;;;;;;23.17;11.82;;;;;;;;;;5071565;28;20047;-59
2023/10/21 01:44:10;;;;;;;30.65;13.05;;;;;;;;;;5071337;28;20059;-59
2023/10/21 01:46:38;;;;;;;23.10;11.80;;;;;;;;;;5072625;28;20043;-58
2023/10/21 01:49:05;;;;;;;25.00;12.20;;;;;;;;;;5071294;28;20131;-59
2023/10/21 01:51:33;;;;;;;23.95;11.88;;;;;;;;;;5072466;28;20029;-59
2023/10/21 01:54:00;;;;;;;28.05;12.70;;;;;;;;;;5071139;28;20056;-60
2023/10/21 01:56:30;;;;;;;27.08;12.82;;;;;;;;;;5072495;28;20482;-59
2023/10/21 01:58:59;;;;;;;19.70;11.93;;;;;;;;;;5071174;28;20047;-59
2023/10/21 02:01:27;;;;;;;23.90;12.27;;;;;;;;;;5071207;28;20131;-59
2023/10/21 02:03:54;;;;;;;32.95;13.15;;;;;;;;;;5071295;28;20123;-59
2023/10/21 02:06:22;;;;;;;25.98;12.63;;;;;;;;;;5072636;28;20632;-59
2023/10/21 02:08:50;;;;;;;25.65;11.88;;;;;;;;;;5087872;28;20048;-60
2023/10/21 02:11:22;;;;;;;28.58;12.20;;;;;;;;;;5071010;28;20049;-59
2023/10/21 02:13:49;;;;;;;26.83;12.85;;;;;;;;;;5071064;28;20441;-59
2023/10/21 02:16:17;;;;;;;25.33;12.30;;;;;;;;;;5071060;28;20561;-58
2023/10/21 02:18:44;;;;;;;29.33;12.40;;;;;;;;;;5071006;28;20040;-58
2023/10/21 02:21:12;;;;;;;23.27;11.45;;;;;;;;;;5070910;28;20044;-59
2023/10/21 02:23:40;;;;;;;23.58;12.05;;;;;;;;;;5072315;28;20086;-58
2023/10/21 02:26:07;;;;;;;22.92;12.40;;;;;;;;;;5071015;28;20042;-58
2023/10/21 02:28:35;;;;;;;26.63;13.30;;;;;;;;;;5070879;28;20051;-58
2023/10/21 02:31:05;;;;;;;20.92;11.95;;;;;;;;;;5070917;28;20080;-58
2023/10/21 02:33:33;;;;;;;24.52;12.15;;;;;;;;;;5070945;28;20044;-59
2023/10/21 02:36:01;;;;;;;21.85;11.68;;;;;;;;;;5070761;28;20055;-59
2023/10/21 02:38:29;;;;;;;25.95;11.75;;;;;;;;;;5073983;28;20044;-59
2023/10/21 02:40:56;;;;;;;21.10;12.13;;;;;;;;;;5074705;28;20044;-59
2023/10/21 02:43:24;;;;;;;28.48;11.13;;;;;;;;;;5074799;28;20041;-59
2023/10/21 02:45:51;;;;;;;29.60;10.93;;;;;;;;;;5074670;28;20040;-59
2023/10/21 02:48:19;;;;;;;23.02;10.32;;;;;;;;;;5074535;28;20041;-58
2023/10/21 02:50:48;;;;;;;21.23;10.38;;;;;;;;;;5074328;28;20041;-58
2023/10/21 02:53:16;;;;;;;30.30;10.77;;;;;;;;;;5074457;28;20048;-58
2023/10/21 02:55:43;;;;;;;25.50;11.52;;;;;;;;;;5074331;28;20052;-58
2023/10/21 02:58:11;;;;;;;24.63;10.65;;;;;;;;;;5074219;28;20055;-59
2023/10/21 03:00:40;;;;;;;21.67;10.60;;;;;;;;;;5074401;28;20040;-58
2023/10/21 03:03:08;;;;;;;22.48;11.18;;;;;;;;;;5075540;28;20032;-58
2023/10/21 03:05:35;;;;;;;29.10;10.75;;;;;;;;;;5074443;28;20066;-58
2023/10/21 03:08:03;;;;;;;24.20;11.00;;;;;;;;;;5075689;28;20052;-59
2023/10/21 03:10:31;;;;;;;28.20;11.15;;;;;;;;;;5074162;28;20135;-59
2023/10/21 03:12:59;;;;;;;22.30;11.40;;;;;;;;;;5074090;28;20102;-59
2023/10/21 03:15:27;;;;;;;24.50;10.57;;;;;;;;;;5075209;28;20036;-59
2023/10/21 03:17:55;;;;;;;28.75;12.07;;;;;;;;;;5074052;28;20048;-59
2023/10/21 03:20:22;;;;;;;25.83;10.27;;;;;;;;;;5075209;28;20374;-59
2023/10/21 03:22:50;;;;;;;25.70;11.50;;;;;;;;;;5073862;28;20485;-59
2023/10/21 03:25:17;;;;;;;29.20;11.27;;;;;;;;;;5073920;28;20048;-59
2023/10/21 03:27:46;;;;;;;21.33;10.57;;;;;;;;;;5073835;28;20048;-59
2023/10/21 03:30:13;;;;;;;27.25;12.05;;;;;;;;;;5075099;28;20070;-59
2023/10/21 03:32:41;;;;;;;21.25;10.82;;;;;;;;;;5073745;28;20044;-59
2023/10/21 03:35:09;;;;;;;22.02;11.00;;;;;;;;;;5075010;28;20059;-59
2023/10/21 03:37:37;;;;;;;26.83;11.48;;;;;;;;;;5073627;28;20076;-59
2023/10/21 03:40:05;;;;;;;21.45;11.15;;;;;;;;;;5074919;28;20063;-59
2023/10/21 03:42:33;;;;;;;19.15;10.65;;;;;;;;;;5073570;28;20506;-59
2023/10/21 03:45:01;;;;;;;23.98;10.85;;;;;;;;;;5073495;28;20432;-59
2023/10/21 03:47:29;;;;;;;27.13;11.98;;;;;;;;;;5074658;28;20203;-59
2023/10/21 03:49:57;;;;;;;22.40;11.55;;;;;;;;;;5072606;28;20036;-59
2023/10/21 03:52:25;;;;;;;25.05;11.90;;;;;;;;;;5074607;28;20044;-59
2023/10/21 03:54:53;;;;;;;22.13;11.27;;;;;;;;;;5073341;28;20044;-59
2023/10/21 03:57:21;;;;;;;23.95;12.05;;;;;;;;;;5074650;28;20112;-59
2023/10/21 03:59:49;;;;;;;26.58;11.55;;;;;;;;;;5074510;28;20482;-59
2023/10/21 04:02:16;;;;;;;25.02;12.73;;;;;;;;;;5074631;28;20524;-59
2023/10/21 04:04:44;;;;;;;24.60;12.75;;;;;;;;;;5074457;28;20043;-59
2023/10/21 04:07:11;;;;;;;27.02;12.75;;;;;;;;;;5074302;28;20618;-60
2023/10/21 04:09:41;;;;;;;32.00;12.63;;;;;;;;;;5074259;28;20514;-59
2023/10/21 04:12:09;;;;;;;26.35;13.27;;;;;;;;;;5074349;28;20095;-59
2023/10/21 04:14:37;;;;;;;24.00;12.18;;;;;;;;;;5074440;28;20045;-59
2023/10/21 04:17:05;;;;;;;30.08;13.38;;;;;;;;;;5073905;28;20371;-59
2023/10/21 04:19:32;;;;;;;29.45;13.27;;;;;;;;;;5074248;28;20468;-59
2023/10/21 04:22:00;;;;;;;31.85;13.27;;;;;;;;;;5074041;28;20037;-60
2023/10/21 04:24:27;;;;;;;39.85;14.07;;;;;;;;;;5074239;28;20123;-59
2023/10/21 04:26:55;;;;;;;28.80;13.50;;;;;;;;;;5072737;28;20044;-59
2023/10/21 04:29:23;;;;;;;36.70;13.20;;;;;;;;;;5073860;28;20041;-59
2023/10/21 04:31:50;;;;;;;29.77;13.38;;;;;;;;;;5073870;28;20058;-60
2023/10/21 04:34:18;;;;;;;49.72;14.23;;;;;;;;;;5073869;28;20041;-59
2023/10/21 04:36:45;;;;;;;34.95;13.65;;;;;;;;;;5073842;28;20494;-59
2023/10/21 04:39:14;;;;;;;30.90;13.73;;;;;;;;;;5073846;28;20041;-59
2023/10/21 04:41:42;;;;;;;33.10;13.57;;;;;;;;;;5073962;28;20040;-59
2023/10/21 04:44:10;;;;;;;29.40;13.98;;;;;;;;;;5072514;28;20037;-59
2023/10/21 04:46:40;;;;;;;31.33;13.98;;;;;;;;;;5073585;28;20044;-60
2023/10/21 04:49:08;;;;;;;27.30;13.82;;;;;;;;;;5073558;28;20037;-59
2023/10/21 04:51:35;;;;;;;34.28;14.13;;;;;;;;;;5072247;28;20040;-59
2023/10/21 04:54:03;;;;;;;29.40;13.57;;;;;;;;;;5073237;28;20573;-59
2023/10/21 04:56:31;;;;;;;34.67;14.65;;;;;;;;;;5073186;28;20490;-59
2023/10/21 04:58:59;;;;;;;24.95;13.88;;;;;;;;;;5073235;28;20435;-59
2023/10/21 05:01:27;;;;;;;31.88;13.55;;;;;;;;;;5072642;28;20406;-59
2023/10/21 05:03:55;;;;;;;39.53;13.88;;;;;;;;;;5073369;28;20040;-59
2023/10/21 05:06:22;;;;;;;25.55;13.60;;;;;;;;;;5073335;28;20044;-59
2023/10/21 05:08:50;;;;;;;35.38;14.10;;;;;;;;;;5073098;28;20035;-59
2023/10/21 05:11:18;;;;;;;37.08;13.20;;;;;;;;;;5073288;28;20127;-60
2023/10/21 05:13:45;;;;;;;34.20;14.70;;;;;;;;;;5073059;28;20063;-60
2023/10/21 05:16:13;;;;;;;30.75;15.25;;;;;;;;;;5073106;28;20393;-60
2023/10/21 05:18:40;;;;;;;34.28;14.82;;;;;;;;;;5073214;28;20048;-59
2023/10/21 05:21:08;;;;;;;42.83;15.90;;;;;;;;;;5073022;28;20037;-60
2023/10/21 05:23:36;;;;;;;38.20;16.40;;;;;;;;;;5071606;28;20072;-60
2023/10/21 05:26:03;;;;;;;36.33;17.50;;;;;;;;;;5072948;28;20398;-60
2023/10/21 05:28:31;;;;;;;40.10;17.58;;;;;;;;;;5071698;28;20094;-59
2023/10/21 05:30:58;;;;;;;27.17;16.00;;;;;;;;;;5072691;28;20036;-60
2023/10/21 05:33:26;;;;;;;37.17;16.35;;;;;;;;;;5072889;28;20094;-60
2023/10/21 05:35:58;;;;;;;31.85;15.93;;;;;;;;;;5071370;28;20045;-60
2023/10/21 05:38:29;;;;;;;26.98;16.25;;;;;;;;;;5086044;28;20077;-60
2023/10/21 05:41:00;;;;;;;33.28;15.30;;;;;;;;;;5091320;28;20101;-60
2023/10/21 05:43:27;;;;;;;30.60;16.05;;;;;;;;;;5092959;28;20107;-60
2023/10/21 05:45:55;;;;;;;42.53;15.77;;;;;;;;;;5092804;28;20066;-60
2023/10/21 05:48:23;;;;;;;30.42;15.65;;;;;;;;;;5091618;28;20106;-59
2023/10/21 05:50:50;;;;;;;30.52;15.50;;;;;;;;;;5092599;28;20371;-60
2023/10/21 05:53:18;;;;;;;33.22;16.60;;;;;;;;;;5083420;28;20075;-60
2023/10/21 05:55:45;;;;;;;35.78;15.48;;;;;;;;;;5069839;28;20127;-60
2023/10/21 05:58:13;;;;;;;30.10;15.15;;;;;;;;;;5072422;28;20045;-60
2023/10/21 06:00:40;;;;;;;29.63;15.63;;;;;;;;;;5072556;28;20047;-61
2023/10/21 06:03:08;;;;;;;34.30;16.38;;;;;;;;;;5072342;28;20041;-61
2023/10/21 06:05:36;;;;;;;28.83;15.38;;;;;;;;;;5072770;28;20044;-59
2023/10/21 06:08:04;;;;;;;33.42;15.02;;;;;;;;;;5072535;28;20040;-59
2023/10/21 06:10:32;;;;;;;25.33;15.57;;;;;;;;;;5072510;28;20135;-59
2023/10/21 06:12:59;;;;;;;34.38;15.50;;;;;;;;;;5074865;28;20090;-59
2023/10/21 06:15:27;;;;;;;28.67;15.18;;;;;;;;;;5076417;28;20044;-59
2023/10/21 06:17:55;;;;;;;29.55;16.92;;;;;;;;;;5076635;28;20052;-59
2023/10/21 06:20:24;;;;;;;34.00;16.20;;;;;;;;;;5076712;28;20036;-59
2023/10/21 06:22:51;;;;;;;40.05;21.58;;;;;;;;;;5076369;28;20502;-59
2023/10/21 06:25:18;;;;;;;55.75;29.33;;;;;;;;;;5076397;28;20032;-58
2023/10/21 06:27:46;;;;;;;43.83;22.58;;;;;;;;;;5076403;28;20041;-58
2023/10/21 06:30:14;;;;;;;57.28;26.17;;;;;;;;;;5067009;28;20036;-58
2023/10/21 06:32:42;;;;;;;50.65;26.40;;;;;;;;;;5065865;28;20124;-58
2023/10/21 06:35:09;;;;;;;48.40;24.88;;;;;;;;;;5069426;28;20059;-60
2023/10/21 06:37:37;;;;;;;49.20;25.17;;;;;;;;;;5065096;28;20414;-57
2023/10/21 06:40:05;;;;;;;50.30;26.85;;;;;;;;;;5067475;28;20355;-58
2023/10/21 06:42:33;;;;;;;41.67;27.10;;;;;;;;;;5053833;28;20045;-59
2023/10/21 06:45:00;;;;;;;49.17;26.33;;;;;;;;;;5064401;28;20051;-58
2023/10/21 06:47:28;;;;;;;41.20;24.17;;;;;;;;;;5068428;28;20048;-58
2023/10/21 06:49:55;;;;;;;47.40;24.65;;;;;;;;;;5069325;28;20041;-58
2023/10/21 06:52:23;;;;;;;50.67;24.67;;;;;;;;;;5068822;28;20040;-59
2023/10/21 06:54:51;;;;;;;46.45;25.60;;;;;;;;;;5068863;28;20029;-56
2023/10/21 06:57:22;;;;;;;40.65;21.80;;;;;;;;;;5069299;28;20482;-58
2023/10/21 06:59:52;;;;;;;40.35;22.02;;;;;;;;;;5069477;28;20044;-58
2023/10/21 07:02:20;;;;;;;41.95;23.38;;;;;;;;;;5067974;28;20180;-58
2023/10/21 07:04:47;;;;;;;45.83;22.98;;;;;;;;;;5069045;28;20037;-58
2023/10/21 07:07:15;;;;;;;43.65;21.27;;;;;;;;;;5069241;28;20048;-59
2023/10/21 07:09:44;;;;;;;40.85;22.63;;;;;;;;;;5069353;28;20063;-59
2023/10/21 07:12:12;;;;;;;44.80;22.58;;;;;;;;;;5069021;28;20040;-59
2023/10/21 07:14:40;;;;;;;38.38;21.38;;;;;;;;;;5068881;28;20431;-58
2023/10/21 07:17:07;;;;;;;41.40;22.42;;;;;;;;;;5068856;28;20055;-59
2023/10/21 07:19:35;;;;;;;42.05;21.73;;;;;;;;;;5067715;28;20051;-59
2023/10/21 07:22:04;;;;;;;39.13;21.13;;;;;;;;;;5069229;28;20398;-59
2023/10/21 07:24:32;;;;;;;40.88;20.52;;;;;;;;;;5068661;28;20056;-59
2023/10/21 07:27:01;;;;;;;37.10;20.73;;;;;;;;;;5069720;28;20123;-60
2023/10/21 07:29:29;;;;;;;38.35;20.63;;;;;;;;;;5069296;28;20066;-59
2023/10/21 07:31:56;;;;;;;44.50;21.92;;;;;;;;;;5068485;28;20044;-59
2023/10/21 07:34:24;;;;;;;48.45;22.05;;;;;;;;;;5069610;28;20052;-58
2023/10/21 07:36:51;;;;;;;48.20;22.80;;;;;;;;;;5069578;28;20047;-60
2023/10/21 07:39:19;;;;;;;44.25;23.58;;;;;;;;;;5069650;28;20036;-59
2023/10/21 07:41:47;;;;;;;45.88;22.83;;;;;;;;;;5069093;28;20040;-59
2023/10/21 07:44:14;;;;;;;46.78;22.25;;;;;;;;;;5069504;28;20044;-59
2023/10/21 07:46:45;;;;;;;41.67;21.92;;;;;;;;;;5067776;28;20044;-60
2023/10/21 07:49:13;;;;;;;46.78;21.38;;;;;;;;;;5069371;28;20048;-58
2023/10/21 07:51:40;;;;;;;45.95;22.55;;;;;;;;;;5069244;28;20405;-59
2023/10/21 07:54:08;;;;;;;50.15;24.52;;;;;;;;;;5069167;28;20051;-59
2023/10/21 07:56:35;;;;;;;50.13;24.33;;;;;;;;;;5069196;28;20045;-59
2023/10/21 07:59:03;;;;;;;44.92;21.15;;;;;;;;;;5068981;28;20055;-59
2023/10/21 08:01:31;;;;;;;37.67;19.25;;;;;;;;;;5069449;28;20043;-57
2023/10/21 08:04:00;;;;;;;32.67;15.18;;;;;;;;;;5069145;28;20565;-58
2023/10/21 08:06:28;;;;;;;31.83;13.77;;;;;;;;;;5067531;28;20052;-59
2023/10/21 08:08:55;;;;;;;28.52;13.48;;;;;;;;;;5064907;28;20037;-58
2023/10/21 08:11:23;;;;;;;38.55;13.63;;;;;;;;;;5049225;28;20573;-59
2023/10/21 08:13:50;;;;;;;28.10;11.60;;;;;;;;;;5050458;28;20542;-59
2023/10/21 08:16:18;;;;;;;30.67;13.10;;;;;;;;;;5049674;28;20037;-58
2023/10/21 08:18:45;;;;;;;25.10;12.98;;;;;;;;;;5049105;28;20049;-58
2023/10/21 08:21:13;;;;;;;33.92;14.32;;;;;;;;;;5062867;28;20067;-59
2023/10/21 08:23:41;;;;;;;30.45;12.10;;;;;;;;;;5049667;28;20224;-59
2023/10/21 08:26:08;;;;;;;27.63;13.52;;;;;;;;;;5064083;28;20513;-58
2023/10/21 08:28:36;;;;;;;27.73;12.55;;;;;;;;;;5068142;28;20050;-59
2023/10/21 08:31:03;;;;;;;27.55;11.70;;;;;;;;;;5068234;28;20049;-58
2023/10/21 08:33:31;;;;;;;30.30;11.65;;;;;;;;;;5067979;28;20041;-60
2023/10/21 08:35:58;;;;;;;18.42;7.32;;;;;;;;;;5067865;28;20094;-59
2023/10/21 08:38:26;;;;;;;22.17;8.10;;;;;;;;;;5068016;28;20355;-59
2023/10/21 08:40:54;;;;;;;18.70;7.93;;;;;;;;;;5067941;28;20075;-58
2023/10/21 08:43:22;;;;;;;25.25;8.32;;;;;;;;;;5065318;28;20541;-59
2023/10/21 08:45:50;;;;;;;19.58;8.20;;;;;;;;;;5049600;28;20033;-59
2023/10/21 08:48:17;;;;;;;15.40;6.70;;;;;;;;;;5051631;28;20045;-59
2023/10/21 08:50:49;;;;;;;21.90;8.45;;;;;;;;;;5049886;28;20410;-59
2023/10/21 08:53:17;;;;;;;83.47;22.60;;;;;;;;;;5058520;28;20045;-59
2023/10/21 08:55:45;;;;;;;153.15;52.67;;;;;;;;;;5058567;28;20046;-58
2023/10/21 08:58:13;;;;;;;28.52;10.63;;;;;;;;;;5063014;28;20041;-59
2023/10/21 09:00:41;;;;;;;23.33;7.25;;;;;;;;;;5057397;28;20056;-59
2023/10/21 09:03:09;;;;;;;462.85;180.48;;;;;;;;;;5050758;28;20481;-60
2023/10/21 09:05:57;;;;;;;22.85;9.85;;;;;;;;;;5049890;28;20418;-59
2023/10/21 09:08:37;;;;;;;24.38;7.63;;;;;;;;;;5051135;28;20408;-59
2023/10/21 09:11:07;;;;;;;35.30;15.55;;;;;;;;;;5060737;28;20037;-59
2023/10/21 09:13:35;;;;;;;46.05;16.05;;;;;;;;;;5051617;28;20041;-59
2023/10/21 09:16:06;;;;;;;36.63;13.45;;;;;;;;;;5054703;28;20817;-59
2023/10/21 09:18:34;;;;;;;28.33;13.32;;;;;;;;;;5067255;28;20040;-59
2023/10/21 09:21:02;;;;;;;35.30;13.13;;;;;;;;;;5067927;28;20040;-59
2023/10/21 09:23:30;;;;;;;32.35;13.10;;;;;;;;;;5067603;28;20037;-59
2023/10/21 09:25:58;;;;;;;21.08;8.80;;;;;;;;;;5067434;28;20045;-60
2023/10/21 09:28:25;;;;;;;29.50;12.32;;;;;;;;;;5067281;28;20119;-58
2023/10/21 09:31:01;;;;;;;23.17;8.90;;;;;;;;;;5067214;28;20043;-58
2023/10/21 09:33:30;;;;;;;20.42;8.40;;;;;;;;;;5067500;28;20577;-59
2023/10/21 09:36:04;;;;;;;22.95;6.75;;;;;;;;;;5066116;28;20044;-60
2023/10/21 09:38:54;;;;;;;28.88;15.07;;;;;;;;;;5054301;28;20098;-58
2023/10/21 09:41:22;;;;;;;19.52;9.02;;;;;;;;;;5065066;28;20072;-59
2023/10/21 09:43:51;;;;;;;25.00;10.93;;;;;;;;;;5067112;28;20048;-59
2023/10/21 09:46:20;;;;;;;25.48;15.07;;;;;;;;;;5066788;28;20036;-59
2023/10/21 09:48:50;;;;;;;25.17;10.98;;;;;;;;;;5067361;28;20043;-59
2023/10/21 09:51:18;;;;;;;26.45;9.15;;;;;;;;;;5066043;28;20040;-60
2023/10/21 09:53:50;;;;;;;24.42;8.10;;;;;;;;;;5066765;28;20139;-60
2023/10/21 09:56:18;;;;;;;18.55;7.70;;;;;;;;;;5067015;28;20087;-60
2023/10/21 09:58:46;;;;;;;194.95;93.85;;;;;;;;;;5065559;28;20113;-60
2023/10/21 10:01:18;;;;;;;45.20;25.75;;;;;;;;;;5065610;28;20041;-59
2023/10/21 10:03:46;;;;;;;37.70;16.20;;;;;;;;;;5066984;28;20147;-59
2023/10/21 10:06:14;;;;;;;15.70;7.03;;;;;;;;;;5067045;28;20090;-59
2023/10/21 10:08:41;;;;;;;19.73;5.43;;;;;;;;;;5066642;28;20098;-59
2023/10/21 10:11:12;;;;;;;22.77;6.53;;;;;;;;;;5065038;28;20043;-60
2023/10/21 10:13:42;;;;;;;36.90;20.73;;;;;;;;;;5061915;28;20032;-58
2023/10/21 10:16:20;;;;;;;20.08;7.15;;;;;;;;;;5066328;28;20048;-60
2023/10/21 10:18:50;;;;;;;17.52;5.72;;;;;;;;;;5066529;28;20538;-59
2023/10/21 10:21:18;;;;;;;17.63;5.03;;;;;;;;;;5067164;28;20053;-59
2023/10/21 10:23:53;;;;;;;25.88;6.43;;;;;;;;;;5066559;28;20129;-60
2023/10/21 10:26:28;;;;;;;18.92;6.88;;;;;;;;;;5066843;28;20046;-60
2023/10/21 10:28:59;;;;;;;21.73;5.60;;;;;;;;;;5066066;28;20033;-60
2023/10/21 10:31:28;;;;;;;20.70;5.13;;;;;;;;;;5065936;28;20405;-60
2023/10/21 10:33:56;;;;;;;20.75;5.13;;;;;;;;;;5066284;28;20115;-59
2023/10/21 10:36:30;;;;;;;13.65;5.50;;;;;;;;;;5066721;28;20133;-61
2023/10/21 10:38:58;;;;;;;20.33;4.57;;;;;;;;;;5065043;28;20135;-59
2023/10/21 10:41:26;;;;;;;19.92;5.00;;;;;;;;;;5066482;28;20040;-59
2023/10/21 10:44:01;;;;;;;17.60;4.80;;;;;;;;;;5066476;28;20048;-59
2023/10/21 10:46:36;;;;;;;14.32;4.68;;;;;;;;;;5066913;28;20037;-59
2023/10/21 10:49:07;;;;;;;;;;;;;;;;;;5066087;28;20483;-60
2023/10/21 10:51:45;;;;;;;15.13;4.07;;;;;;;;;;5057788;28;19979;-61
2023/10/21 10:54:18;;;;;;;18.02;5.93;;;;;;;;;;5093436;28;20052;-59
2023/10/21 10:56:49;;;;;;;16.55;5.20;;;;;;;;;;5072448;28;20036;-60
2023/10/21 10:59:22;;;;;;;21.35;4.30;;;;;;;;;;5081890;28;20073;-60
2023/10/21 11:02:01;;;;;;;13.77;3.80;;;;;;;;;;5085214;28;20390;-60
2023/10/21 11:04:32;;;;;;;21.40;5.15;;;;;;;;;;5085567;28;20561;-60
2023/10/21 11:07:03;;;;;;;15.35;4.25;;;;;;;;;;5086058;28;20140;-60
2023/10/21 11:09:30;;;;;;;13.43;3.63;;;;;;;;;;5076779;28;20500;-58
2023/10/21 11:11:58;;;;;;;30.67;17.92;;;;;;;;;;5079057;28;20048;-60
2023/10/21 11:14:38;;;;;;;166.25;143.98;;;;;;;;;;5078369;28;20043;-60
2023/10/21 11:17:06;;;;;;;38.70;23.63;;;;;;;;;;5077736;28;20723;-59
2023/10/21 11:19:33;;;;;;;263.50;219.55;;;;;;;;;;5075367;28;20135;-65
2023/10/21 11:22:07;;;;;;;396.63;353.13;;;;;;;;;;5076314;28;20468;-63
2023/10/21 11:24:35;;;;;;;273.70;243.45;;;;;;;;;;5055023;28;20044;-62
2023/10/21 11:27:05;;;;;;;59.30;44.45;;;;;;;;;;5078076;28;20048;-62
2023/10/21 11:29:34;;;;;;;30.10;20.55;;;;;;;;;;5069411;28;20489;-59
2023/10/21 11:32:02;;;;;;;35.05;26.65;;;;;;;;;;5075746;28;20054;-60
2023/10/21 11:34:30;;;;;;;104.43;86.43;;;;;;;;;;5057943;28;20526;-60
2023/10/21 11:36:57;;;;;;;51.15;37.15;;;;;;;;;;5068839;28;20040;-61
2023/10/21 11:39:26;;;;;;;68.53;50.97;;;;;;;;;;5050441;28;20098;-61
2023/10/21 11:41:56;;;;;;;60.97;44.65;;;;;;;;;;5068409;28;20036;-62
2023/10/21 11:44:28;;;;;;;74.10;57.08;;;;;;;;;;5077652;28;20575;-61
2023/10/21 11:47:03;;;;;;;138.82;114.00;;;;;;;;;;5069128;28;20137;-65
2023/10/21 11:49:39;;;;;;;43.97;28.50;;;;;;;;;;5065424;28;20040;-61
2023/10/21 11:52:09;;;;;;;18.95;7.78;;;;;;;;;;5067859;28;20050;-62
2023/10/21 11:57:41;;;;;;;18.88;7.93;;;;;;;;;;5075743;28;20044;-61
2023/10/21 12:04:17;;;;;;;10.98;4.53;;;;;;;;;;5076950;28;20052;-61
2023/10/21 12:37:29;;;;;;;16.15;4.85;;;;;;;;;;5093953;28;20094;-64
2023/10/21 12:39:57;;;;;;;15.43;4.63;;;;;;;;;;5093835;28;20051;-63
2023/10/21 12:42:29;;;;;;;14.07;4.78;;;;;;;;;;5093325;28;20040;-66
2023/10/21 12:45:05;;;;;;;22.65;4.53;;;;;;;;;;5090766;28;20094;-65
2023/10/21 12:47:33;;;;;;;16.42;3.92;;;;;;;;;;5093647;28;20064;-68
2023/10/21 12:50:01;;;;;;;18.65;5.55;;;;;;;;;;5090803;28;20397;-68
2023/10/21 12:52:29;;;;;;;12.38;4.32;;;;;;;;;;5078072;28;20032;-65
2023/10/21 12:54:56;;;;;;;17.05;4.65;;;;;;;;;;5084493;28;20119;-64
2023/10/21 12:57:25;;;;;;;15.82;3.70;;;;;;;;;;5087604;28;20063;-65
2023/10/21 12:59:52;;;;;;;14.68;4.95;;;;;;;;;;5077711;28;20048;-64
2023/10/21 13:02:20;;;;;;;13.88;4.90;;;;;;;;;;5070930;28;20094;-72
2023/10/21 13:04:47;;;;;;;19.38;5.00;;;;;;;;;;5082763;28;20070;-73
2023/10/21 13:07:15;;;;;;;12.45;4.60;;;;;;;;;;5083301;28;20041;-66
2023/10/21 13:09:43;;;;;;;13.00;4.75;;;;;;;;;;5086265;28;20028;-66
2023/10/21 13:12:14;;;;;;;19.45;3.95;;;;;;;;;;5078463;28;20036;-66
2023/10/21 13:14:42;;;;;;;13.63;4.07;;;;;;;;;;5078021;28;20041;-67
2023/10/21 13:17:11;;;;;;;15.98;6.35;;;;;;;;;;5067522;28;20089;-66
2023/10/21 13:19:39;;;;;;;18.80;5.00;;;;;;;;;;5075770;28;20044;-67
2023/10/21 13:22:07;;;;;;;13.60;4.07;;;;;;;;;;5075308;28;20770;-68
2023/10/21 13:24:35;;;;;;;9.57;4.35;;;;;;;;;;5070406;28;20405;-67
2023/10/21 13:27:06;;;;;;;21.63;5.65;;;;;;;;;;5067938;28;20056;-67
2023/10/21 13:29:34;;;;;;;10.35;3.88;;;;;;;;;;5065777;28;20559;-67
2023/10/21 13:32:01;;;;;;;15.65;6.28;;;;;;;;;;5066946;28;20040;-68
2023/10/21 13:34:30;;;;;;;15.80;4.32;;;;;;;;;;5065493;28;20049;-68
2023/10/21 13:36:58;;;;;;;16.40;5.78;;;;;;;;;;5055806;28;20044;-66
2023/10/21 13:39:28;;;;;;;15.45;5.13;;;;;;;;;;5054289;28;20060;-67
2023/10/21 13:41:56;;;;;;;15.73;6.68;;;;;;;;;;5059814;28;20036;-67
2023/10/21 13:44:23;;;;;;;19.35;6.22;;;;;;;;;;5059759;28;20117;-67
2023/10/21 13:46:51;;;;;;;17.30;5.70;;;;;;;;;;5063436;28;20051;-67
2023/10/21 13:49:18;;;;;;;18.40;5.80;;;;;;;;;;5061824;28;20048;-68
2023/10/21 13:51:47;;;;;;;14.93;5.00;;;;;;;;;;5054606;28;20103;-67
2023/10/21 13:54:14;;;;;;;17.27;5.50;;;;;;;;;;5064894;28;20749;-66
2023/10/21 13:56:43;;;;;;;19.52;5.63;;;;;;;;;;5057602;28;20621;-67
2023/10/21 13:59:14;;;;;;;13.25;5.20;;;;;;;;;;5063755;28;20048;-67
2023/10/21 14:01:42;;;;;;;23.98;5.90;;;;;;;;;;5063733;28;20476;-68
2023/10/21 14:04:14;;;;;;;17.90;4.85;;;;;;;;;;5037113;28;20494;-68
2023/10/21 14:06:46;;;;;;;22.35;5.97;;;;;;;;;;5059794;28;20090;-66
2023/10/21 14:09:23;;;;;;;24.15;5.50;;;;;;;;;;5054154;28;20037;-67
2023/10/21 14:11:51;;;;;;;15.50;5.43;;;;;;;;;;5059588;28;20068;-67
2023/10/21 14:14:19;;;;;;;17.42;4.97;;;;;;;;;;5065222;28;20040;-67
2023/10/21 14:16:47;;;;;;;21.05;6.43;;;;;;;;;;5066951;28;20059;-67
2023/10/21 14:19:14;;;;;;;18.00;4.38;;;;;;;;;;5066747;28;20094;-67
2023/10/21 14:21:43;;;;;;;16.52;4.88;;;;;;;;;;5066764;28;20102;-68
2023/10/21 14:24:13;;;;;;;13.63;4.13;;;;;;;;;;5066778;28;20517;-67
2023/10/21 14:26:43;;;;;;;15.98;4.25;;;;;;;;;;5066477;28;20072;-68
2023/10/21 14:29:12;;;;;;;14.63;3.85;;;;;;;;;;5066514;28;20052;-68
2023/10/21 14:31:41;;;;;;;10.75;4.07;;;;;;;;;;5060912;28;20044;-68
2023/10/21 14:34:09;;;;;;;14.48;4.07;;;;;;;;;;5049937;28;20548;-68
2023/10/21 14:36:37;;;;;;;17.27;4.38;;;;;;;;;;5054530;28;20033;-68
2023/10/21 14:39:06;;;;;;;12.30;3.65;;;;;;;;;;5053962;28;20124;-67
2023/10/21 14:41:34;;;;;;;11.70;4.55;;;;;;;;;;5067920;28;20119;-67
2023/10/21 14:44:02;;;;;;;16.00;6.03;;;;;;;;;;5056780;28;20052;-68
2023/10/21 14:46:30;;;;;;;17.65;6.75;;;;;;;;;;5064155;28;20051;-68
2023/10/21 14:49:01;;;;;;;18.10;6.85;;;;;;;;;;5058451;28;20495;-67
2023/10/21 14:51:28;;;;;;;20.25;10.82;;;;;;;;;;5063631;28;20440;-69
2023/10/21 14:53:56;;;;;;;21.10;10.48;;;;;;;;;;5063908;28;20422;-68
2023/10/21 14:56:23;;;;;;;27.88;13.95;;;;;;;;;;5064064;28;20123;-68
2023/10/21 14:58:51;;;;;;;23.02;13.23;;;;;;;;;;5062787;28;20140;-68
2023/10/21 15:01:19;;;;;;;31.48;13.50;;;;;;;;;;5069637;28;20040;-68
2023/10/21 15:03:46;;;;;;;32.53;13.45;;;;;;;;;;5069197;28;20078;-68
2023/10/21 15:06:14;;;;;;;33.83;14.43;;;;;;;;;;5068007;28;20037;-67